createdAt,value
2018-06-08T00:00:48.821Z,37.4
2018-06-08T00:01:49.073Z,38.35
2018-06-08T00:02:48.812Z,37.3
2018-06-08T00:03:48.807Z,37.49
2018-06-08T00:04:49.056Z,35.58
2018-06-08T00:05:49.064Z,33.28
2018-06-08T00:06:49.048Z,32.42
2018-06-08T00:07:48.791Z,32.33
2018-06-08T00:08:49.044Z,31.27
2018-06-08T00:09:49.037Z,30.8
2018-06-08T00:10:49.038Z,32.04
2018-06-08T00:11:48.774Z,34.34
2018-06-08T00:12:49.025Z,35.86
2018-06-08T00:13:48.761Z,35.68
2018-06-08T00:14:49.014Z,36.25
2018-06-08T00:15:49.071Z,36.73
2018-06-08T00:16:48.752Z,36.06
2018-06-08T00:17:48.744Z,35.86
2018-06-08T00:18:48.740Z,34.72
2018-06-08T00:19:48.992Z,31.56
2018-06-08T00:20:48.992Z,31.37
2018-06-08T00:21:48.989Z,31.37
2018-06-08T00:22:48.977Z,32.52
2018-06-08T00:23:48.976Z,32.23
2018-06-08T00:24:48.970Z,31.66
2018-06-08T00:25:48.965Z,32.52
2018-06-08T00:26:48.957Z,33.57
2018-06-08T00:27:48.956Z,32.04
2018-06-08T00:28:48.953Z,32.14
2018-06-08T00:29:48.948Z,32.42
2018-06-08T00:30:48.943Z,31.95
2018-06-08T00:31:48.682Z,32.71
2018-06-08T00:32:48.675Z,33.19
2018-06-08T00:33:48.927Z,33.09
2018-06-08T00:34:48.925Z,31.95
2018-06-08T00:35:48.923Z,31.27
2018-06-08T00:36:48.912Z,31.37
2018-06-08T00:37:48.912Z,31.56
2018-06-08T00:38:48.910Z,31.47
2018-06-08T00:39:48.937Z,31.56
2018-06-08T00:40:48.901Z,31.76
2018-06-08T00:41:48.896Z,32.33
2018-06-08T00:42:48.886Z,32.42
2018-06-08T00:43:48.624Z,32.81
2018-06-08T00:44:48.878Z,32.81
2018-06-08T00:45:48.874Z,32.42
2018-06-08T00:46:48.864Z,33.48
2018-06-08T00:47:48.624Z,33.38
2018-06-08T00:48:48.599Z,33.48
2018-06-08T00:49:48.849Z,34.14
2018-06-08T00:50:48.854Z,35.39
2018-06-08T00:51:48.846Z,35.29
2018-06-08T00:52:48.839Z,34.34
2018-06-08T00:53:48.834Z,34.72
2018-06-08T00:54:48.832Z,35.86
2018-06-08T00:55:48.568Z,34.63
2018-06-08T00:56:48.571Z,35
2018-06-08T00:57:48.818Z,34.91
2018-06-08T00:58:48.810Z,34.63
2018-06-08T00:59:48.801Z,35.58
2018-06-08T01:00:48.806Z,35.77
2018-06-08T01:01:48.538Z,36.25
2018-06-08T01:02:48.795Z,36.92
2018-06-08T01:03:48.783Z,37.11
2018-06-08T01:04:48.785Z,36.73
2018-06-08T01:05:48.520Z,37.11
2018-06-08T01:06:48.771Z,37.97
2018-06-08T01:07:48.511Z,38.35
2018-06-08T01:08:48.507Z,38.35
2018-06-08T01:09:48.757Z,37.59
2018-06-08T01:10:48.756Z,36.71
2018-06-08T01:11:48.750Z,36.04
2018-06-08T01:12:48.750Z,35.66
2018-06-08T01:13:48.740Z,35.28
2018-06-08T01:14:48.748Z,35.94
2018-06-08T01:15:48.731Z,36.9
2018-06-08T01:16:48.723Z,36.9
2018-06-08T01:17:48.720Z,36.71
2018-06-08T01:18:48.713Z,37.19
2018-06-08T01:19:48.728Z,36.43
2018-06-08T01:20:48.714Z,35.85
2018-06-08T01:21:48.445Z,35.75
2018-06-08T01:22:48.721Z,36.14
2018-06-08T01:23:48.433Z,36.43
2018-06-08T01:24:48.429Z,36.71
2018-06-08T01:25:48.423Z,37.38
2018-06-08T01:26:48.419Z,36.9
2018-06-08T01:27:48.671Z,37.48
2018-06-08T01:28:48.664Z,37.19
2018-06-08T01:29:48.402Z,36.71
2018-06-08T01:30:48.400Z,37.66
2018-06-08T01:31:48.649Z,37.28
2018-06-08T01:32:48.647Z,36.71
2018-06-08T01:33:48.643Z,35.47
2018-06-08T01:34:48.379Z,34.51
2018-06-08T01:35:48.374Z,35.57
2018-06-08T01:36:48.625Z,35.66
2018-06-08T01:37:48.682Z,34.99
2018-06-08T01:38:48.616Z,35.37
2018-06-08T01:39:48.405Z,35.57
2018-06-08T01:40:48.609Z,34.89
2018-06-08T01:41:48.651Z,34.8
2018-06-08T01:42:48.598Z,35.37
2018-06-08T01:43:48.592Z,34.8
2018-06-08T01:44:48.329Z,34.51
2018-06-08T01:45:48.324Z,34.13
2018-06-08T01:46:48.320Z,34.22
2018-06-08T01:47:48.569Z,34.51
2018-06-08T01:48:48.564Z,34.22
2018-06-08T01:49:48.305Z,34.22
2018-06-08T01:50:48.562Z,33.84
2018-06-08T01:51:48.552Z,34.51
2018-06-08T01:52:48.550Z,34.61
2018-06-08T01:53:48.282Z,34.69
2018-06-08T01:54:48.535Z,33.56
2018-06-08T01:55:48.530Z,33.73
2018-06-08T01:56:48.523Z,32.6
2018-06-08T01:57:48.684Z,32.87
2018-06-08T01:58:48.330Z,33.56
2018-06-08T01:59:48.508Z,33.94
2018-06-08T02:00:48.273Z,33.75
2018-06-08T02:01:48.500Z,32.87
2018-06-08T02:02:48.496Z,32.2
2018-06-08T02:03:48.232Z,31.72
2018-06-08T02:04:48.483Z,31.63
2018-06-08T02:05:48.220Z,29.33
2018-06-08T02:06:48.214Z,27.9
2018-06-08T02:07:48.468Z,27.9
2018-06-08T02:08:48.462Z,28.86
2018-06-08T02:09:48.459Z,28.66
2018-06-08T02:10:48.451Z,28.66
2018-06-08T02:11:48.447Z,29.33
2018-06-08T02:12:48.444Z,28.76
2018-06-08T02:13:48.434Z,27.52
2018-06-08T02:14:48.434Z,27.9
2018-06-08T02:15:48.440Z,28.66
2018-06-08T02:16:48.418Z,29.14
2018-06-08T02:17:48.417Z,29.14
2018-06-08T02:18:48.407Z,29.62
2018-06-08T02:19:48.145Z,29.91
2018-06-08T02:20:48.399Z,30.29
2018-06-08T02:21:48.139Z,29.91
2018-06-08T02:22:48.387Z,29.05
2018-06-08T02:23:48.124Z,28.95
2018-06-08T02:24:48.376Z,30.29
2018-06-08T02:25:48.113Z,30.48
2018-06-08T02:26:48.364Z,30.29
2018-06-08T02:27:48.102Z,31.34
2018-06-08T02:28:48.096Z,31.34
2018-06-08T02:29:48.349Z,31.72
2018-06-08T02:30:48.345Z,32.68
2018-06-08T02:31:48.339Z,33.06
2018-06-08T02:32:48.336Z,33.73
2018-06-08T02:33:48.327Z,33.73
2018-06-08T02:34:48.324Z,34.88
2018-06-08T02:35:48.319Z,34.59
2018-06-08T02:36:48.052Z,35.64
2018-06-08T02:37:48.301Z,35.93
2018-06-08T02:38:48.045Z,35.74
2018-06-08T02:39:48.039Z,35.93
2018-06-08T02:40:48.056Z,36.98
2018-06-08T02:41:48.309Z,37.17
2018-06-08T02:42:48.275Z,35.74
2018-06-08T02:43:48.275Z,36.5
2018-06-08T02:44:48.269Z,36.69
2018-06-08T02:45:48.262Z,35.93
2018-06-08T02:46:48.252Z,36.41
2018-06-08T02:47:48.260Z,36.69
2018-06-08T02:48:48.243Z,36.79
2018-06-08T02:49:47.981Z,36.98
2018-06-08T02:50:48.240Z,36.98
2018-06-08T02:51:48.232Z,36.6
2018-06-08T02:52:48.229Z,36.69
2018-06-08T02:53:47.962Z,36.41
2018-06-08T02:54:48.213Z,36.02
2018-06-08T02:55:47.947Z,35.93
2018-06-08T02:56:47.941Z,35.16
2018-06-08T02:57:48.195Z,34.49
2018-06-08T02:58:48.215Z,34.69
2018-06-08T02:59:48.185Z,34.2
2018-06-08T03:00:47.923Z,33.83
2018-06-08T03:01:48.170Z,34.4
2018-06-08T03:02:48.168Z,34.49
2018-06-08T03:03:48.178Z,34.49
2018-06-08T03:04:47.896Z,34.78
2018-06-08T03:05:47.910Z,35.45
2018-06-08T03:06:48.224Z,35.55
2018-06-08T03:07:48.137Z,35.93
2018-06-08T03:08:48.131Z,35.74
2018-06-08T03:09:48.129Z,36.21
2018-06-08T03:10:47.867Z,35.64
2018-06-08T03:11:47.857Z,35.93
2018-06-08T03:12:48.110Z,35.74
2018-06-08T03:13:48.107Z,36.88
2018-06-08T03:14:48.096Z,37.36
2018-06-08T03:15:48.096Z,38.22
2018-06-08T03:16:48.085Z,38.12
2018-06-08T03:17:48.082Z,38.12
2018-06-08T03:18:48.077Z,38.32
2018-06-08T03:19:47.812Z,38.7
2018-06-08T03:20:48.067Z,39.18
2018-06-08T03:21:48.060Z,39.94
2018-06-08T03:22:48.057Z,40.32
2018-06-08T03:23:47.789Z,39.27
2018-06-08T03:24:48.042Z,39.18
2018-06-08T03:25:48.047Z,39.65
2018-06-08T03:26:48.032Z,39.94
2018-06-08T03:27:48.024Z,39.18
2018-06-08T03:28:48.018Z,39.48
2018-06-08T03:29:48.014Z,39.75
2018-06-08T03:30:48.063Z,40.23
2018-06-08T03:31:48.003Z,39.86
2018-06-08T03:32:47.744Z,39.29
2018-06-08T03:33:47.992Z,39.29
2018-06-08T03:34:47.988Z,39.29
2018-06-08T03:35:47.984Z,39.1
2018-06-08T03:36:47.987Z,40.15
2018-06-08T03:37:47.968Z,41.3
2018-06-08T03:38:47.710Z,40.92
2018-06-08T03:39:47.702Z,41.78
2018-06-08T03:40:47.954Z,42.9
2018-06-08T03:41:47.948Z,43.3
2018-06-08T03:42:47.940Z,43.59
2018-06-08T03:43:47.941Z,43.4
2018-06-08T03:44:47.934Z,43.4
2018-06-08T03:45:47.927Z,43.69
2018-06-08T03:46:47.664Z,43.69
2018-06-08T03:47:47.917Z,44.55
2018-06-08T03:48:47.908Z,44.65
2018-06-08T03:49:47.904Z,44.84
2018-06-08T03:50:47.899Z,45.22
2018-06-08T03:51:47.637Z,45.31
2018-06-08T03:52:47.888Z,45.7
2018-06-08T03:53:47.626Z,45.6
2018-06-08T03:54:47.881Z,45.51
2018-06-08T03:55:47.871Z,45.51
2018-06-08T03:56:47.609Z,46.08
2018-06-08T03:57:47.863Z,47.13
2018-06-08T03:58:47.855Z,47.71
2018-06-08T03:59:47.852Z,49.16
2018-06-08T04:00:47.848Z,48.78
2018-06-08T04:01:47.840Z,48.97
2018-06-08T04:02:47.575Z,50.5
2018-06-08T04:03:47.832Z,51.36
2018-06-08T04:04:47.827Z,52.22
2018-06-08T04:05:47.820Z,52.8
2018-06-08T04:06:47.816Z,52.99
2018-06-08T04:07:47.808Z,52.8
2018-06-08T04:08:47.548Z,53.47
2018-06-08T04:09:47.797Z,53.56
2018-06-08T04:10:47.798Z,52.89
2018-06-08T04:11:47.789Z,53.59
2018-06-08T04:12:47.786Z,53.69
2018-06-08T04:13:47.780Z,54.55
2018-06-08T04:14:47.778Z,54.45
2018-06-08T04:15:47.771Z,54.45
2018-06-08T04:16:47.775Z,54.83
2018-06-08T04:17:47.766Z,56.08
2018-06-08T04:18:47.758Z,56.65
2018-06-08T04:19:47.751Z,55.51
2018-06-08T04:20:47.746Z,57.23
2018-06-08T04:21:47.745Z,58.12
2018-06-08T04:22:47.738Z,58.88
2018-06-08T04:23:47.733Z,58.79
2018-06-08T04:24:47.730Z,58.79
2018-06-08T04:25:47.805Z,58.02
2018-06-08T04:26:47.715Z,55.34
2018-06-08T04:27:47.709Z,53.23
2018-06-08T04:28:47.450Z,53.04
2018-06-08T04:29:47.703Z,52.85
2018-06-08T04:30:47.443Z,53.62
2018-06-08T04:31:47.445Z,53.62
2018-06-08T04:32:47.761Z,54.1
2018-06-08T04:33:47.685Z,55.46
2018-06-08T04:34:47.425Z,59.2
2018-06-08T04:35:47.680Z,60.64
2018-06-08T04:36:47.672Z,60.54
2018-06-08T04:37:47.670Z,56.71
2018-06-08T04:38:47.409Z,56.71
2018-06-08T04:39:47.659Z,57.86
2018-06-08T04:40:47.657Z,57.86
2018-06-08T04:41:47.652Z,58.81
2018-06-08T04:42:47.390Z,60.09
2018-06-08T04:43:47.385Z,61.69
2018-06-08T04:44:47.638Z,63.45
2018-06-08T04:45:47.638Z,65.55
2018-06-08T04:46:47.375Z,65.65
2018-06-08T04:47:47.372Z,64.4
2018-06-08T04:48:47.626Z,67.28
2018-06-08T04:49:47.620Z,67.57
2018-06-08T04:50:47.358Z,67.09
2018-06-08T04:51:47.786Z,65.84
2018-06-08T04:52:47.622Z,63.45
2018-06-08T04:53:47.349Z,60.96
2018-06-08T04:54:47.355Z,59.23
2018-06-08T04:55:47.597Z,56.96
2018-06-08T04:56:47.596Z,54.75
2018-06-08T04:57:47.589Z,53.79
2018-06-08T04:58:47.585Z,54.46
2018-06-08T04:59:47.585Z,56.86
2018-06-08T05:00:47.320Z,60.7
2018-06-08T05:01:47.321Z,60.31
2018-06-08T05:02:47.577Z,61.18
2018-06-08T05:03:47.618Z,61.66
2018-06-08T05:04:47.569Z,61.08
2018-06-08T05:05:47.570Z,60.99
2018-06-08T05:06:47.299Z,59.64
2018-06-08T05:07:47.553Z,59.26
2018-06-08T05:08:47.294Z,60.22
2018-06-08T05:09:47.669Z,62.71
2018-06-08T05:10:47.288Z,62.74
2018-06-08T05:11:47.544Z,61.21
2018-06-08T05:12:47.547Z,61.21
2018-06-08T05:13:47.537Z,59.77
2018-06-08T05:14:47.540Z,60.05
2018-06-08T05:15:47.537Z,59.58
2018-06-08T05:16:47.269Z,60.15
2018-06-08T05:17:47.266Z,61.02
2018-06-08T05:18:47.521Z,60.53
2018-06-08T05:19:47.260Z,61.11
2018-06-08T05:20:47.257Z,62.84
2018-06-08T05:21:47.254Z,62.77
2018-06-08T05:22:47.506Z,63.64
2018-06-08T05:23:47.248Z,63.83
2018-06-08T05:24:47.247Z,64.89
2018-06-08T05:25:47.501Z,67.57
2018-06-08T05:26:47.502Z,68.53
2018-06-08T05:27:47.239Z,67.47
2018-06-08T05:28:47.234Z,66.23
2018-06-08T05:29:47.493Z,65.27
2018-06-08T05:30:47.489Z,66.61
2018-06-08T05:31:47.596Z,71.73
2018-06-08T05:32:47.480Z,72.41
2018-06-08T05:33:47.478Z,72.5
2018-06-08T05:34:47.474Z,72.79
2018-06-08T05:35:47.475Z,72.41
2018-06-08T05:36:47.476Z,72.89
2018-06-08T05:37:47.478Z,72.31
2018-06-08T05:38:47.469Z,74.27
2018-06-08T05:39:47.465Z,74.17
2018-06-08T05:40:47.208Z,73.79
2018-06-08T05:41:47.459Z,76.29
2018-06-08T05:42:47.463Z,80.13
2018-06-08T05:43:47.200Z,83.59
2018-06-08T05:44:47.199Z,82.92
2018-06-08T05:45:47.195Z,80.13
2018-06-08T05:46:47.452Z,81.28
2018-06-08T05:47:47.444Z,81.28
2018-06-08T05:48:47.447Z,82.48
2018-06-08T05:49:47.445Z,79.94
2018-06-08T05:50:47.445Z,89.01
2018-06-08T05:51:47.440Z,91.52
2018-06-08T05:52:47.439Z,92.19
2018-06-08T05:53:47.608Z,91.03
2018-06-08T05:54:47.436Z,90.5
2018-06-08T05:55:47.433Z,90.59
2018-06-08T05:56:47.428Z,91.46
2018-06-08T05:57:47.426Z,95.6
2018-06-08T05:58:47.169Z,95.6
2018-06-08T05:59:47.426Z,96.37
2018-06-08T06:00:47.425Z,95.5
2018-06-08T06:01:47.424Z,96.32
2018-06-08T06:02:47.424Z,98.14
2018-06-08T06:03:47.420Z,99.59
2018-06-08T06:04:47.160Z,99.01
2018-06-08T06:05:47.429Z,97.86
2018-06-08T06:06:47.419Z,98.92
2018-06-08T06:07:47.154Z,98.44
2018-06-08T06:08:47.417Z,97.67
2018-06-08T06:09:47.154Z,98.97
2018-06-08T06:10:47.415Z,99.44
2018-06-08T06:11:47.407Z,99.06
2018-06-08T06:12:47.411Z,99.99
2018-06-08T06:13:47.408Z,98.77
2018-06-08T06:14:47.405Z,99.84
2018-06-08T06:15:47.408Z,99.54
2018-06-08T06:16:47.408Z,99.35
2018-06-08T06:17:47.405Z,99.99
2018-06-08T06:18:47.403Z,99.99
2018-06-08T06:19:47.144Z,99.99
2018-06-08T06:20:47.403Z,99.99
2018-06-08T06:21:47.400Z,97.47
2018-06-08T06:22:47.397Z,99.99
2018-06-08T06:23:47.138Z,99.99
2018-06-08T06:24:47.395Z,99.21
2018-06-08T06:25:47.405Z,99.98
2018-06-08T06:26:47.396Z,99.99
2018-06-08T06:27:47.396Z,99.99
2018-06-08T06:28:47.395Z,99.99
2018-06-08T06:29:47.395Z,99.99
2018-06-08T06:30:47.403Z,99.99
2018-06-08T06:31:47.411Z,99.99
2018-06-08T06:32:47.396Z,99.99
2018-06-08T06:33:47.397Z,99.99
2018-06-08T06:34:47.136Z,99.99
2018-06-08T06:35:47.394Z,99.99
2018-06-08T06:36:47.396Z,99.99
2018-06-08T06:37:47.396Z,99.99
2018-06-08T06:38:47.396Z,99.99
2018-06-08T06:39:47.395Z,99.99
2018-06-08T06:40:47.401Z,99.99
2018-06-08T06:41:47.399Z,99.99
2018-06-08T06:42:47.140Z,98.15
2018-06-08T06:43:47.393Z,95.15
2018-06-08T06:44:47.404Z,89.59
2018-06-08T06:45:47.397Z,83.92
2018-06-08T06:46:47.403Z,79.32
2018-06-08T06:47:47.403Z,78.23
2018-06-08T06:48:47.142Z,70.93
2018-06-08T06:49:47.401Z,66.02
2018-06-08T06:50:47.412Z,64.11
2018-06-08T06:51:47.408Z,61.61
2018-06-08T06:52:47.153Z,60.7
2018-06-08T06:53:47.153Z,58.95
2018-06-08T06:54:47.417Z,54.69
2018-06-08T06:55:47.161Z,51.87
2018-06-08T06:56:47.163Z,52.97
2018-06-08T06:57:47.422Z,52.87
2018-06-08T06:58:47.452Z,51.34
2018-06-08T06:59:47.432Z,48.24
2018-06-08T07:00:47.434Z,45.46
2018-06-08T07:01:47.439Z,44.8
2018-06-08T07:02:47.188Z,42.87
2018-06-08T07:03:47.455Z,43.2
2018-06-08T07:04:47.195Z,40.66
2018-06-08T07:05:47.456Z,39.41
2018-06-08T07:06:47.204Z,39.43
2018-06-08T07:07:47.468Z,38.75
2018-06-08T07:08:47.471Z,38.96
2018-06-08T07:09:47.221Z,37.39
2018-06-08T07:10:47.483Z,35.93
2018-06-08T07:11:47.233Z,36.51
2018-06-08T07:12:47.270Z,36.71
2018-06-08T07:13:47.501Z,37.51
2018-06-08T07:14:47.253Z,37.9
2018-06-08T07:15:47.513Z,35.65
2018-06-08T07:16:47.265Z,34.77
2018-06-08T07:17:47.277Z,34.88
2018-06-08T07:18:47.339Z,34.8
2018-06-08T07:19:47.286Z,38.15
2018-06-08T07:20:47.293Z,34.81
2018-06-08T07:21:47.555Z,32.87
2018-06-08T07:22:47.564Z,32.48
2018-06-08T07:23:47.314Z,32.09
2018-06-08T07:24:47.654Z,33.85
2018-06-08T07:25:47.330Z,31.79
2018-06-08T07:26:47.598Z,31.61
2018-06-08T07:27:47.355Z,32.79
2018-06-08T07:28:47.610Z,31.51
2018-06-08T07:29:47.365Z,31.32
2018-06-08T07:30:47.631Z,30.93
2018-06-08T07:31:47.505Z,30.82
2018-06-08T07:32:47.647Z,30.53
2018-06-08T07:33:47.658Z,31.61
2018-06-08T07:34:47.407Z,31.01
2018-06-08T07:35:47.671Z,32.48
2018-06-08T07:36:47.678Z,34.51
2018-06-08T07:37:47.697Z,34.47
2018-06-08T07:38:47.704Z,34.83
2018-06-08T07:39:47.707Z,36.2
2018-06-08T07:40:47.714Z,37.26
2018-06-08T07:41:47.463Z,38.14
2018-06-08T07:42:47.472Z,39.49
2018-06-08T07:43:47.481Z,41.64
2018-06-08T07:44:47.746Z,41.03
2018-06-08T07:45:47.754Z,39.37
2018-06-08T07:46:47.823Z,39.49
2018-06-08T07:47:47.512Z,38.14
2018-06-08T07:48:47.522Z,36.4
2018-06-08T07:49:47.530Z,37.77
2018-06-08T07:50:47.794Z,36.2
2018-06-08T07:51:47.805Z,37.98
2018-06-08T07:52:47.553Z,35.73
2018-06-08T07:53:47.854Z,35.04
2018-06-08T07:54:47.825Z,34.84
2018-06-08T07:55:47.576Z,34.93
2018-06-08T07:56:47.839Z,34.74
2018-06-08T07:57:47.846Z,35.5
2018-06-08T07:58:47.858Z,37.22
2018-06-08T07:59:47.863Z,38.06
2018-06-08T08:00:47.869Z,39.61
2018-06-08T08:01:47.880Z,41.56
2018-06-08T08:02:47.887Z,39.04
2018-06-08T08:03:47.636Z,38.57
2018-06-08T08:04:47.902Z,38.69
2018-06-08T08:05:47.651Z,38.61
2018-06-08T08:06:47.915Z,40.37
2018-06-08T08:07:47.923Z,39.96
2018-06-08T08:08:47.673Z,41.41
2018-06-08T08:09:47.935Z,43.02
2018-06-08T08:10:47.947Z,43.68
2018-06-08T08:11:47.950Z,43.27
2018-06-08T08:12:47.957Z,42.96
2018-06-08T08:13:47.707Z,45.76
2018-06-08T08:14:47.967Z,49.54
2018-06-08T08:15:47.720Z,50.87
2018-06-08T08:16:47.980Z,52.98
2018-06-08T08:17:47.745Z,58.23
2018-06-08T08:18:47.734Z,56.95
2018-06-08T08:19:47.742Z,56.52
2018-06-08T08:20:48.006Z,54.97
2018-06-08T08:21:47.755Z,63.2
2018-06-08T08:22:48.017Z,64.36
2018-06-08T08:23:48.021Z,62.01
2018-06-08T08:24:48.037Z,58.29
2018-06-08T08:25:47.786Z,56.64
2018-06-08T08:26:47.781Z,56.05
2018-06-08T08:27:47.784Z,59.26
2018-06-08T08:28:48.048Z,61.19
2018-06-08T08:29:47.792Z,76.23
2018-06-08T08:30:48.061Z,88.26
2018-06-08T08:31:48.065Z,92.91
2018-06-08T08:32:48.066Z,91.31
2018-06-08T08:33:48.076Z,78.54
2018-06-08T08:34:48.079Z,66.11
2018-06-08T08:35:48.083Z,62.84
2018-06-08T08:36:48.093Z,58.95
2018-06-08T08:37:47.833Z,57.33
2018-06-08T08:38:48.098Z,56.07
2018-06-08T08:39:48.165Z,55.1
2018-06-08T08:40:47.847Z,59.28
2018-06-08T08:41:48.110Z,56.1
2018-06-08T08:42:47.861Z,57.75
2018-06-08T08:43:48.123Z,61.35
2018-06-08T08:44:48.124Z,56.49
2018-06-08T08:45:48.322Z,56.87
2018-06-08T08:46:48.140Z,55.51
2018-06-08T08:47:48.144Z,55.22
2018-06-08T08:48:47.888Z,47.93
2018-06-08T08:49:48.151Z,48.41
2018-06-08T08:50:48.157Z,53.06
2018-06-08T08:51:47.948Z,53.74
2018-06-08T08:52:48.163Z,55.78
2018-06-08T08:53:48.169Z,58.5
2018-06-08T08:54:48.184Z,54.32
2018-06-08T08:55:48.179Z,53.52
2018-06-08T08:56:48.361Z,54.78
2018-06-08T08:57:48.190Z,55.27
2018-06-08T08:58:48.198Z,59.54
2018-06-08T08:59:48.202Z,62.04
2018-06-08T09:00:48.206Z,61.07
2018-06-08T09:01:47.951Z,61.35
2018-06-08T09:02:47.995Z,64.46
2018-06-08T09:03:48.254Z,65.53
2018-06-08T09:04:47.966Z,66.3
2018-06-08T09:05:48.227Z,61.74
2018-06-08T09:06:48.239Z,61.25
2018-06-08T09:07:47.980Z,59.8
2018-06-08T09:08:48.247Z,61.74
2018-06-08T09:09:48.245Z,63.81
2018-06-08T09:10:48.252Z,59.92
2018-06-08T09:11:47.999Z,56.43
2018-06-08T09:12:48.258Z,54.97
2018-06-08T09:13:48.006Z,55.17
2018-06-08T09:14:48.269Z,54.78
2018-06-08T09:15:48.274Z,55.75
2018-06-08T09:16:48.276Z,55.85
2018-06-08T09:17:48.290Z,55.07
2018-06-08T09:18:48.290Z,53.61
2018-06-08T09:19:48.294Z,53.71
2018-06-08T09:20:48.298Z,53.16
2018-06-08T09:21:48.044Z,52.47
2018-06-08T09:22:48.309Z,53.54
2018-06-08T09:23:48.313Z,54.74
2018-06-08T09:24:48.057Z,52.82
2018-06-08T09:25:48.326Z,58.17
2018-06-08T09:26:48.325Z,51.19
2018-06-08T09:27:48.338Z,49.44
2018-06-08T09:28:48.333Z,48.36
2018-06-08T09:29:48.083Z,49.44
2018-06-08T09:30:48.086Z,50.31
2018-06-08T09:31:48.347Z,51.97
2018-06-08T09:32:48.098Z,50.68
2018-06-08T09:33:48.363Z,55.15
2018-06-08T09:34:48.366Z,54.38
2018-06-08T09:35:48.373Z,54.21
2018-06-08T09:36:48.382Z,52.06
2018-06-08T09:37:48.125Z,51.39
2018-06-08T09:38:48.387Z,49.92
2018-06-08T09:39:48.135Z,54.11
2018-06-08T09:40:48.400Z,56.25
2018-06-08T09:41:48.147Z,51.48
2018-06-08T09:42:48.409Z,53.4
2018-06-08T09:43:48.421Z,55.27
2018-06-08T09:44:48.419Z,48.75
2018-06-08T09:45:48.428Z,48.36
2018-06-08T09:46:48.428Z,50.02
2018-06-08T09:47:48.435Z,53.23
2018-06-08T09:48:48.442Z,52.97
2018-06-08T09:49:48.263Z,51.02
2018-06-08T09:50:48.193Z,45.86
2018-06-08T09:51:48.453Z,46.25
2018-06-08T09:52:48.464Z,47.98
2018-06-08T09:53:48.467Z,48.17
2018-06-08T09:54:48.263Z,51.67
2018-06-08T09:55:48.478Z,51.58
2018-06-08T09:56:48.224Z,48.27
2018-06-08T09:57:48.231Z,47.56
2018-06-08T09:58:48.240Z,47.15
2018-06-08T09:59:48.498Z,49.27
2018-06-08T10:00:48.501Z,51.6
2018-06-08T10:01:48.251Z,51.79
2018-06-08T10:02:48.257Z,55.78
2018-06-08T10:03:48.356Z,51.5
2018-06-08T10:04:48.708Z,51.11
2018-06-08T10:05:48.528Z,51.5
2018-06-08T10:06:48.279Z,52.57
2018-06-08T10:07:48.539Z,55.32
2018-06-08T10:08:48.287Z,56.2
2018-06-08T10:09:48.552Z,57.59
2018-06-08T10:10:48.301Z,61.38
2018-06-08T10:11:48.561Z,53.59
2018-06-08T10:12:48.565Z,54.79
2018-06-08T10:13:48.311Z,47
2018-06-08T10:14:48.576Z,45.94
2018-06-08T10:15:48.582Z,46.81
2018-06-08T10:16:48.591Z,47.27
2018-06-08T10:17:48.592Z,45.91
2018-06-08T10:18:48.597Z,48.61
2018-06-08T10:19:48.597Z,48.13
2018-06-08T10:20:48.347Z,46.96
2018-06-08T10:21:48.611Z,47.42
2018-06-08T10:22:48.616Z,46.64
2018-06-08T10:23:48.364Z,48.3
2018-06-08T10:24:48.623Z,48.39
2018-06-08T10:25:48.627Z,48
2018-06-08T10:26:48.632Z,47.61
2018-06-08T10:27:48.415Z,48.58
2018-06-08T10:28:48.647Z,48.58
2018-06-08T10:29:48.651Z,50.73
2018-06-08T10:30:48.648Z,45.57
2018-06-08T10:31:48.657Z,48.49
2018-06-08T10:32:48.668Z,48.51
2018-06-08T10:33:48.407Z,47.05
2018-06-08T10:34:48.673Z,46.45
2018-06-08T10:35:48.675Z,47.13
2018-06-08T10:36:48.682Z,47.23
2018-06-08T10:37:48.686Z,47.23
2018-06-08T10:38:48.689Z,48.3
2018-06-08T10:39:48.695Z,48.49
2018-06-08T10:40:48.706Z,47.61
2018-06-08T10:41:48.706Z,48.49
2018-06-08T10:42:48.712Z,47.78
2018-06-08T10:43:48.458Z,47.91
2018-06-08T10:44:48.459Z,50.02
2018-06-08T10:45:48.719Z,48.47
2018-06-08T10:46:48.730Z,47.2
2018-06-08T10:47:48.736Z,47.2
2018-06-08T10:48:48.477Z,51.11
2018-06-08T10:49:48.484Z,49.46
2018-06-08T10:50:48.751Z,48.68
2018-06-08T10:51:48.753Z,47.61
2018-06-08T10:52:48.498Z,48.39
2018-06-08T10:53:48.760Z,47.81
2018-06-08T10:54:48.764Z,46.15
2018-06-08T10:55:48.769Z,45.38
2018-06-08T10:56:48.774Z,44.51
2018-06-08T10:57:48.775Z,46.35
2018-06-08T10:58:48.522Z,47.23
2018-06-08T10:59:48.527Z,48.68
2018-06-08T11:00:48.788Z,45.87
2018-06-08T11:01:48.541Z,47.81
2018-06-08T11:02:48.795Z,47.81
2018-06-08T11:03:48.808Z,45.87
2018-06-08T11:04:48.805Z,47.88
2018-06-08T11:05:48.812Z,50.12
2018-06-08T11:06:48.818Z,47.4
2018-06-08T11:07:48.561Z,46.6
2018-06-08T11:08:48.876Z,47.76
2018-06-08T11:09:48.722Z,47.96
2018-06-08T11:10:49.086Z,46.6
2018-06-08T11:11:48.729Z,48.35
2018-06-08T11:12:49.046Z,46.79
2018-06-08T11:13:49.032Z,44.78
2018-06-08T11:14:48.966Z,46.04
2018-06-08T11:15:48.853Z,44.87
2018-06-08T11:16:48.914Z,44.29
2018-06-08T11:17:48.606Z,48.18
2018-06-08T11:18:48.609Z,47.59
2018-06-08T11:19:48.638Z,48.66
2018-06-08T11:20:48.616Z,48.3
2018-06-08T11:21:48.889Z,44.89
2018-06-08T11:22:48.626Z,44.7
2018-06-08T11:23:48.896Z,46.15
2018-06-08T11:24:48.892Z,43.24
2018-06-08T11:25:48.901Z,41.49
2018-06-08T11:26:48.646Z,40.73
2018-06-08T11:27:49.130Z,40.42
2018-06-08T11:28:48.910Z,41.78
2018-06-08T11:29:48.657Z,41.61
2018-06-08T11:30:48.923Z,43.26
2018-06-08T11:31:48.927Z,45.32
2018-06-08T11:32:48.694Z,44.94
2018-06-08T11:33:48.677Z,43.77
2018-06-08T11:34:48.685Z,42.5
2018-06-08T11:35:48.941Z,42.31
2018-06-08T11:36:49.106Z,43.87
2018-06-08T11:37:48.953Z,43.55
2018-06-08T11:38:48.780Z,42.68
2018-06-08T11:39:48.964Z,44.72
2018-06-08T11:40:49.032Z,44.6
2018-06-08T11:41:49.140Z,43.44
2018-06-08T11:42:48.900Z,43.36
2018-06-08T11:43:49.393Z,42.49
2018-06-08T11:44:48.848Z,41.13
2018-06-08T11:45:49.115Z,37.84
2018-06-08T11:46:49.142Z,38.81
2018-06-08T11:47:49.133Z,41.14
2018-06-08T11:48:49.070Z,43.48
2018-06-08T11:49:48.828Z,40.85
2018-06-08T11:50:49.137Z,38.81
2018-06-08T11:51:48.790Z,38.81
2018-06-08T11:52:49.201Z,38.5
2018-06-08T11:53:49.248Z,38.52
2018-06-08T11:54:49.053Z,39.78
2018-06-08T11:55:49.134Z,38.62
2018-06-08T11:56:49.288Z,37.45
2018-06-08T11:57:49.195Z,37.45
2018-06-08T11:58:49.215Z,37.16
2018-06-08T11:59:49.261Z,38.71
2018-06-08T12:00:48.810Z,37.84
2018-06-08T12:01:49.172Z,38.54
2018-06-08T12:02:49.076Z,40.48
2018-06-08T12:03:49.081Z,41.26
2018-06-08T12:04:49.092Z,41.46
2018-06-08T12:05:49.092Z,38.83
2018-06-08T12:06:49.103Z,37.93
2018-06-08T12:07:48.848Z,39.29
2018-06-08T12:08:48.844Z,40.25
2018-06-08T12:09:49.113Z,40.34
2018-06-08T12:10:49.134Z,41.22
2018-06-08T12:11:49.127Z,40.44
2018-06-08T12:12:49.187Z,42.66
2018-06-08T12:13:49.132Z,42.66
2018-06-08T12:14:49.285Z,41.39
2018-06-08T12:15:48.960Z,38.77
2018-06-08T12:16:49.146Z,39.94
2018-06-08T12:17:49.152Z,43.44
2018-06-08T12:18:49.156Z,43.24
2018-06-08T12:19:49.159Z,42.78
2018-06-08T12:20:49.165Z,40.73
2018-06-08T12:21:49.179Z,44.43
2018-06-08T12:22:48.923Z,42.87
2018-06-08T12:23:48.926Z,40.85
2018-06-08T12:24:48.934Z,39.39
2018-06-08T12:25:49.195Z,38.91
2018-06-08T12:26:49.200Z,35.91
2018-06-08T12:27:49.200Z,37.46
2018-06-08T12:28:49.207Z,36.77
2018-06-08T12:29:49.221Z,36.3
2018-06-08T12:30:49.030Z,36.28
2018-06-08T12:31:48.964Z,36.28
2018-06-08T12:32:49.239Z,37.45
2018-06-08T12:33:48.982Z,38.81
2018-06-08T12:34:49.240Z,40.17
2018-06-08T12:35:49.248Z,39.88
2018-06-08T12:36:49.252Z,39.88
2018-06-08T12:37:48.999Z,40.95
2018-06-08T12:38:49.264Z,41.06
2018-06-08T12:39:49.265Z,38.24
2018-06-08T12:40:49.015Z,38.05
2018-06-08T12:41:49.282Z,39.61
2018-06-08T12:42:49.280Z,38.23
2018-06-08T12:43:49.287Z,38.32
2018-06-08T12:44:49.288Z,38.23
2018-06-08T12:45:49.050Z,38.52
2018-06-08T12:46:49.304Z,38.52
2018-06-08T12:47:49.050Z,38.71
2018-06-08T12:48:49.055Z,39
2018-06-08T12:49:49.060Z,37.14
2018-06-08T12:50:49.323Z,38.6
2018-06-08T12:51:49.328Z,38.81
2018-06-08T12:52:49.145Z,37.84
2018-06-08T12:53:49.412Z,39.1
2018-06-08T12:54:49.420Z,39.49
2018-06-08T12:55:49.092Z,40.27